sensor_id;sensor_type;location;lat;lon;timestamp;pressure;altitude;pressure_sealevel;temperature;humidity
49515;BME280;35415;47.870;16.058;2023-03-15T05:18:47;96532.34;;;6.34;69.32
49515;BME280;35415;47.870;16.058;2023-03-15T05:46:26;96562.31;;;5.72;75.08
49515;BME280;35415;47.870;16.058;2023-03-15T05:48:54;96560.44;;;5.46;76.46
49515;BME280;35415;47.870;16.058;2023-03-15T05:51:21;96609.16;;;5.63;76.16
49515;BME280;35415;47.870;16.058;2023-03-15T05:53:48;96570.91;;;5.26;77.13
49515;BME280;35415;47.870;16.058;2023-03-15T05:56:16;96640.13;;;5.64;76.99
49515;BME280;35415;47.870;16.058;2023-03-15T05:58:43;96660.69;;;5.69;76.64
49515;BME280;35415;47.870;16.058;2023-03-15T06:01:10;96631.06;;;5.38;77.66
49515;BME280;35415;47.870;16.058;2023-03-15T06:03:42;96623.69;;;5.24;76.64
49515;BME280;35415;47.870;16.058;2023-03-15T06:06:09;96645.56;;;5.26;77.28
49515;BME280;35415;47.870;16.058;2023-03-15T06:08:36;96613.69;;;4.92;77.79
49515;BME280;35415;47.870;16.058;2023-03-15T06:11:04;96694.41;;;5.31;78.10
49515;BME280;35415;47.870;16.058;2023-03-15T06:13:31;96645.66;;;4.70;78.48
49515;BME280;35415;47.870;16.058;2023-03-15T06:15:59;96653.47;;;4.77;79.41
49515;BME280;35415;47.870;16.058;2023-03-15T06:18:26;96706.22;;;4.97;81.11
49515;BME280;35415;47.870;16.058;2023-03-15T06:20:55;96701.41;;;4.77;81.79
49515;BME280;35415;47.870;16.058;2023-03-15T06:23:22;96704.38;;;4.80;80.47
49515;BME280;35415;47.870;16.058;2023-03-15T06:25:49;96682.63;;;4.50;80.75
49515;BME280;35415;47.870;16.058;2023-03-15T06:28:19;96698.28;;;4.46;79.53
49515;BME280;35415;47.870;16.058;2023-03-15T06:30:48;96736.06;;;4.60;78.52
49515;BME280;35415;47.870;16.058;2023-03-15T06:33:20;96717.41;;;4.43;77.96
49515;BME280;35415;47.870;16.058;2023-03-15T06:35:49;96698.00;;;4.14;77.22
49515;BME280;35415;47.870;16.058;2023-03-15T06:38:17;96661.09;;;3.73;76.70
49515;BME280;35415;47.870;16.058;2023-03-15T06:40:47;96664.84;;;3.60;78.04
49515;BME280;35415;47.870;16.058;2023-03-15T06:43:19;96706.56;;;3.71;77.01
49515;BME280;35415;47.870;16.058;2023-03-15T06:45:58;96731.72;;;3.80;78.04
49515;BME280;35415;47.870;16.058;2023-03-15T06:48:26;96717.09;;;3.66;78.01
49515;BME280;35415;47.870;16.058;2023-03-15T06:50:56;96738.81;;;3.75;76.14
49515;BME280;35415;47.870;16.058;2023-03-15T06:53:44;96736.66;;;3.60;76.81
49515;BME280;35415;47.870;16.058;2023-03-15T06:56:11;96720.41;;;3.45;76.22
49515;BME280;35415;47.870;16.058;2023-03-15T06:58:45;96810.22;;;3.95;77.17
49515;BME280;35415;47.870;16.058;2023-03-15T07:01:26;96804.56;;;3.91;75.37
49515;BME280;35415;47.870;16.058;2023-03-15T07:03:55;96754.88;;;3.40;74.10
49515;BME280;35415;47.870;16.058;2023-03-15T07:06:22;96836.38;;;3.86;73.90
49515;BME280;35415;47.870;16.058;2023-03-15T07:09:02;96828.06;;;3.82;72.02
49515;BME280;35415;47.870;16.058;2023-03-15T07:11:30;96785.16;;;3.39;71.41
49515;BME280;35415;47.870;16.058;2023-03-15T07:13:58;96764.38;;;3.24;70.63
49515;BME280;35415;47.870;16.058;2023-03-15T07:16:27;96821.53;;;3.50;70.52
49515;BME280;35415;47.870;16.058;2023-03-15T07:18:54;96823.28;;;3.56;73.56
49515;BME280;35415;47.870;16.058;2023-03-15T07:21:26;96804.19;;;3.36;73.68
49515;BME280;35415;47.870;16.058;2023-03-15T07:23:58;96785.72;;;3.41;72.08
49515;BME280;35415;47.870;16.058;2023-03-15T07:26:29;96861.16;;;3.75;68.12
49515;BME280;35415;47.870;16.058;2023-03-15T07:28:59;96835.84;;;3.60;67.57
49515;BME280;35415;47.870;16.058;2023-03-15T07:31:26;96833.44;;;3.59;65.44
49515;BME280;35415;47.870;16.058;2023-03-15T07:33:56;96811.16;;;3.37;65.77
49515;BME280;35415;47.870;16.058;2023-03-15T07:36:28;96817.59;;;3.52;67.57
49515;BME280;35415;47.870;16.058;2023-03-15T07:39:00;96837.25;;;3.63;66.59
49515;BME280;35415;47.870;16.058;2023-03-15T07:41:32;96799.25;;;3.27;66.01
49515;BME280;35415;47.870;16.058;2023-03-15T07:43:59;96822.22;;;3.45;65.68
49515;BME280;35415;47.870;16.058;2023-03-15T07:46:30;96787.81;;;3.27;61.87
49515;BME280;35415;47.870;16.058;2023-03-15T07:49:05;96849.81;;;3.68;63.27
49515;BME280;35415;47.870;16.058;2023-03-15T07:51:36;96864.41;;;3.65;61.75
49515;BME280;35415;47.870;16.058;2023-03-15T07:54:06;96883.94;;;3.82;61.66
49515;BME280;35415;47.870;16.058;2023-03-15T07:56:36;96779.72;;;3.10;59.92
49515;BME280;35415;47.870;16.058;2023-03-15T07:59:07;96849.06;;;3.44;60.97
49515;BME280;35415;47.870;16.058;2023-03-15T08:01:49;96891.34;;;3.69;59.77
49515;BME280;35415;47.870;16.058;2023-03-15T08:04:23;96842.25;;;3.36;60.55
49515;BME280;35415;47.870;16.058;2023-03-15T08:06:58;96906.28;;;3.70;60.08
49515;BME280;35415;47.870;16.058;2023-03-15T08:09:30;96893.44;;;3.78;61.90
49515;BME280;35415;47.870;16.058;2023-03-15T08:12:21;96857.25;;;3.42;60.99
49515;BME280;35415;47.870;16.058;2023-03-15T08:14:48;96905.69;;;3.68;61.95
49515;BME280;35415;47.870;16.058;2023-03-15T08:17:22;96901.16;;;3.68;59.14
49515;BME280;35415;47.870;16.058;2023-03-15T08:19:52;96875.63;;;3.32;60.19
49515;BME280;35415;47.870;16.058;2023-03-15T08:22:22;96860.38;;;3.27;59.38
49515;BME280;35415;47.870;16.058;2023-03-15T08:24:52;96927.66;;;3.63;59.87
49515;BME280;35415;47.870;16.058;2023-03-15T08:27:27;96967.22;;;3.83;59.79
49515;BME280;35415;47.870;16.058;2023-03-15T08:29:57;96928.00;;;3.43;60.05
49515;BME280;35415;47.870;16.058;2023-03-15T08:32:26;96938.19;;;3.70;60.01
49515;BME280;35415;47.870;16.058;2023-03-15T08:34:55;96961.53;;;3.68;59.77
49515;BME280;35415;47.870;16.058;2023-03-15T08:37:24;96952.88;;;3.72;59.04
49515;BME280;35415;47.870;16.058;2023-03-15T08:39:53;96948.00;;;3.69;59.17
49515;BME280;35415;47.870;16.058;2023-03-15T08:42:39;96929.13;;;3.36;59.26
49515;BME280;35415;47.870;16.058;2023-03-15T08:45:18;96907.53;;;3.44;60.63
49515;BME280;35415;47.870;16.058;2023-03-15T08:47:46;96974.63;;;3.81;61.40
49515;BME280;35415;47.870;16.058;2023-03-15T08:50:15;96912.28;;;3.42;60.12
49515;BME280;35415;47.870;16.058;2023-03-15T08:52:44;96946.41;;;3.56;59.57
49515;BME280;35415;47.870;16.058;2023-03-15T08:55:12;96957.16;;;3.73;60.77
49515;BME280;35415;47.870;16.058;2023-03-15T08:57:43;96967.81;;;3.73;60.91
49515;BME280;35415;47.870;16.058;2023-03-15T09:00:12;96896.00;;;3.38;59.81
49515;BME280;35415;47.870;16.058;2023-03-15T09:02:45;96952.16;;;3.65;59.74
49515;BME280;35415;47.870;16.058;2023-03-15T09:05:15;96978.44;;;3.97;59.15
49515;BME280;35415;47.870;16.058;2023-03-15T09:07:45;96955.41;;;3.79;59.11
49515;BME280;35415;47.870;16.058;2023-03-15T09:10:14;96948.72;;;3.76;59.08
49515;BME280;35415;47.870;16.058;2023-03-15T09:12:45;96973.22;;;4.02;59.12
49515;BME280;35415;47.870;16.058;2023-03-15T09:15:12;96943.88;;;3.73;58.54
49515;BME280;35415;47.870;16.058;2023-03-15T09:17:40;96955.63;;;4.01;56.79
49515;BME280;35415;47.870;16.058;2023-03-15T09:20:09;97028.16;;;4.43;57.86
49515;BME280;35415;47.870;16.058;2023-03-15T09:22:50;96969.97;;;4.11;58.03
49515;BME280;35415;47.870;16.058;2023-03-15T09:25:19;96967.66;;;4.15;57.94
49515;BME280;35415;47.870;16.058;2023-03-15T09:27:48;96970.69;;;4.07;57.31
49515;BME280;35415;47.870;16.058;2023-03-15T09:30:16;96997.81;;;4.44;57.52
49515;BME280;35415;47.870;16.058;2023-03-15T09:32:45;97038.91;;;4.48;58.05
49515;BME280;35415;47.870;16.058;2023-03-15T09:35:13;96959.09;;;4.13;58.12
49515;BME280;35415;47.870;16.058;2023-03-15T09:37:41;97026.41;;;4.48;59.32
49515;BME280;35415;47.870;16.058;2023-03-15T09:40:14;97046.06;;;4.71;59.79
49515;BME280;35415;47.870;16.058;2023-03-15T09:42:54;97017.38;;;4.49;59.71
49515;BME280;35415;47.870;16.058;2023-03-15T09:45:32;96984.41;;;4.39;59.94
49515;BME280;35415;47.870;16.058;2023-03-15T09:48:07;97028.25;;;4.60;60.71
49515;BME280;35415;47.870;16.058;2023-03-15T09:50:40;96969.47;;;4.38;61.23
49515;BME280;35415;47.870;16.058;2023-03-15T09:53:17;96975.94;;;4.42;60.95
49515;BME280;35415;47.870;16.058;2023-03-15T09:55:49;96993.84;;;4.58;61.93
49515;BME280;35415;47.870;16.058;2023-03-15T09:58:22;96952.56;;;4.44;61.44
49515;BME280;35415;47.870;16.058;2023-03-15T10:00:54;97026.19;;;4.90;62.00
49515;BME280;35415;47.870;16.058;2023-03-15T10:03:29;97012.06;;;4.90;61.66
49515;BME280;35415;47.870;16.058;2023-03-15T10:06:11;96999.00;;;4.76;61.10
49515;BME280;35415;47.870;16.058;2023-03-15T10:08:39;96965.78;;;4.67;61.22
49515;BME280;35415;47.870;16.058;2023-03-15T10:11:11;96992.03;;;4.87;62.55
49515;BME280;35415;47.870;16.058;2023-03-15T10:13:52;97029.03;;;5.00;62.80
49515;BME280;35415;47.870;16.058;2023-03-15T10:16:28;96983.13;;;4.81;62.31
49515;BME280;35415;47.870;16.058;2023-03-15T10:19:13;97018.63;;;4.99;62.98
49515;BME280;35415;47.870;16.058;2023-03-15T10:27:37;97002.31;;;4.95;61.65
49515;BME280;35415;47.870;16.058;2023-03-15T10:30:16;97062.06;;;5.39;61.64
49515;BME280;35415;47.870;16.058;2023-03-15T10:32:48;96980.44;;;4.81;61.60
49515;BME280;35415;47.870;16.058;2023-03-15T10:35:18;96995.03;;;4.91;62.05
49515;BME280;35415;47.870;16.058;2023-03-15T10:37:46;96993.44;;;4.78;63.06
49515;BME280;35415;47.870;16.058;2023-03-15T10:40:14;97004.34;;;4.76;61.65
49515;BME280;35415;47.870;16.058;2023-03-15T10:42:43;97005.25;;;4.82;61.63
49515;BME280;35415;47.870;16.058;2023-03-15T10:45:21;96961.84;;;4.70;60.90
49515;BME280;35415;47.870;16.058;2023-03-15T10:47:49;97012.41;;;4.93;61.07
49515;BME280;35415;47.870;16.058;2023-03-15T10:50:25;97034.91;;;5.14;61.28
49515;BME280;35415;47.870;16.058;2023-03-15T10:52:55;96981.09;;;4.72;61.46
49515;BME280;35415;47.870;16.058;2023-03-15T10:55:32;96980.22;;;4.83;60.20
49515;BME280;35415;47.870;16.058;2023-03-15T10:58:18;97006.03;;;4.94;60.10
49515;BME280;35415;47.870;16.058;2023-03-15T11:00:50;97010.81;;;5.09;59.67
49515;BME280;35415;47.870;16.058;2023-03-15T11:03:20;97012.78;;;5.13;58.47
49515;BME280;35415;47.870;16.058;2023-03-15T11:05:49;96987.81;;;5.20;57.19
49515;BME280;35415;47.870;16.058;2023-03-15T11:08:19;97026.78;;;5.37;56.92
49515;BME280;35415;47.870;16.058;2023-03-15T11:11:00;97049.88;;;5.60;55.64
49515;BME280;35415;47.870;16.058;2023-03-15T11:13:30;97017.59;;;5.45;56.61
49515;BME280;35415;47.870;16.058;2023-03-15T11:16:18;97048.59;;;5.80;55.27
49515;BME280;35415;47.870;16.058;2023-03-15T11:18:48;96975.50;;;5.47;54.38
49515;BME280;35415;47.870;16.058;2023-03-15T11:21:22;96984.28;;;5.48;54.14
49515;BME280;35415;47.870;16.058;2023-03-15T11:23:51;97028.69;;;5.70;53.33
49515;BME280;35415;47.870;16.058;2023-03-15T11:26:23;96974.19;;;5.50;53.50
49515;BME280;35415;47.870;16.058;2023-03-15T11:28:53;96969.59;;;5.45;53.61
49515;BME280;35415;47.870;16.058;2023-03-15T11:31:26;97005.66;;;5.64;53.52
49515;BME280;35415;47.870;16.058;2023-03-15T11:33:57;97012.34;;;5.84;53.71
49515;BME280;35415;47.870;16.058;2023-03-15T11:36:29;97016.75;;;5.73;52.64
49515;BME280;35415;47.870;16.058;2023-03-15T11:38:59;97064.97;;;6.00;52.22
49515;BME280;35415;47.870;16.058;2023-03-15T11:41:34;97017.78;;;5.89;51.20
49515;BME280;35415;47.870;16.058;2023-03-15T11:44:10;97031.28;;;5.82;51.72
49515;BME280;35415;47.870;16.058;2023-03-15T11:46:47;97014.88;;;5.73;52.71
49515;BME280;35415;47.870;16.058;2023-03-15T11:49:20;96989.31;;;5.44;51.85
49515;BME280;35415;47.870;16.058;2023-03-15T11:51:54;97007.75;;;5.62;52.02
49515;BME280;35415;47.870;16.058;2023-03-15T11:54:24;97018.75;;;5.66;52.69
49515;BME280;35415;47.870;16.058;2023-03-15T11:56:54;97046.44;;;5.93;51.46
49515;BME280;35415;47.870;16.058;2023-03-15T11:59:27;96996.91;;;5.69;51.16
49515;BME280;35415;47.870;16.058;2023-03-15T12:01:58;97030.41;;;5.77;52.06
49515;BME280;35415;47.870;16.058;2023-03-15T12:04:43;97029.88;;;5.91;51.69
49515;BME280;35415;47.870;16.058;2023-03-15T12:07:29;96980.66;;;5.54;51.11
49515;BME280;35415;47.870;16.058;2023-03-15T12:10:18;96973.56;;;5.59;51.47
49515;BME280;35415;47.870;16.058;2023-03-15T12:12:47;97004.09;;;5.85;49.95
49515;BME280;35415;47.870;16.058;2023-03-15T12:15:40;96999.19;;;5.77;50.71
49515;BME280;35415;47.870;16.058;2023-03-15T12:18:16;97016.66;;;6.01;50.13
49515;BME280;35415;47.870;16.058;2023-03-15T12:20:49;97009.56;;;5.90;50.62
49515;BME280;35415;47.870;16.058;2023-03-15T12:23:30;97041.19;;;6.15;50.26
49515;BME280;35415;47.870;16.058;2023-03-15T12:26:04;97028.72;;;6.04;49.53
49515;BME280;35415;47.870;16.058;2023-03-15T12:28:34;97051.28;;;6.30;49.32
49515;BME280;35415;47.870;16.058;2023-03-15T12:31:07;97052.97;;;6.19;49.14
49515;BME280;35415;47.870;16.058;2023-03-15T12:33:46;97024.41;;;6.20;49.28
49515;BME280;35415;47.870;16.058;2023-03-15T12:36:19;97041.16;;;6.32;49.34
49515;BME280;35415;47.870;16.058;2023-03-15T12:38:59;96958.47;;;5.87;49.28
49515;BME280;35415;47.870;16.058;2023-03-15T12:41:36;96966.19;;;6.00;49.68
49515;BME280;35415;47.870;16.058;2023-03-15T12:44:37;96981.00;;;6.08;49.00
49515;BME280;35415;47.870;16.058;2023-03-15T12:47:06;96973.50;;;6.26;48.95
49515;BME280;35415;47.870;16.058;2023-03-15T12:49:41;96981.88;;;6.35;47.48
49515;BME280;35415;47.870;16.058;2023-03-15T12:52:26;97032.38;;;6.75;47.28
49515;BME280;35415;47.870;16.058;2023-03-15T12:55:02;96952.50;;;6.13;47.69
49515;BME280;35415;47.870;16.058;2023-03-15T12:57:43;96981.03;;;6.29;48.08
49515;BME280;35415;47.870;16.058;2023-03-15T13:00:15;96995.38;;;6.45;47.31
49515;BME280;35415;47.870;16.058;2023-03-15T13:02:45;97024.44;;;6.58;47.76
49515;BME280;35415;47.870;16.058;2023-03-15T13:05:26;96986.16;;;6.36;47.67
49515;BME280;35415;47.870;16.058;2023-03-15T13:08:05;97066.63;;;6.78;46.33
49515;BME280;35415;47.870;16.058;2023-03-15T13:10:39;97046.31;;;6.77;46.69
49515;BME280;35415;47.870;16.058;2023-03-15T13:13:20;97003.22;;;6.52;47.07
49515;BME280;35415;47.870;16.058;2023-03-15T13:16:03;96986.25;;;6.41;47.15
49515;BME280;35415;47.870;16.058;2023-03-15T13:18:43;97037.22;;;6.78;47.16
49515;BME280;35415;47.870;16.058;2023-03-15T13:21:19;97032.25;;;6.65;47.96
49515;BME280;35415;47.870;16.058;2023-03-15T13:23:51;97046.56;;;6.76;47.74
49515;BME280;35415;47.870;16.058;2023-03-15T13:26:32;97023.69;;;6.63;47.81
49515;BME280;35415;47.870;16.058;2023-03-15T13:29:10;97014.41;;;6.49;48.68
49515;BME280;35415;47.870;16.058;2023-03-15T13:31:38;96994.69;;;6.33;48.87
49515;BME280;35415;47.870;16.058;2023-03-15T13:34:12;97046.16;;;6.67;48.87
49515;BME280;35415;47.870;16.058;2023-03-15T13:36:44;96984.19;;;6.26;49.17
49515;BME280;35415;47.870;16.058;2023-03-15T13:39:18;96977.34;;;6.36;48.72
49515;BME280;35415;47.870;16.058;2023-03-15T13:41:48;97011.97;;;6.47;49.04
49515;BME280;35415;47.870;16.058;2023-03-15T13:44:18;97028.91;;;6.75;49.08
49515;BME280;35415;47.870;16.058;2023-03-15T13:46:47;96986.00;;;6.43;49.18
49515;BME280;35415;47.870;16.058;2023-03-15T13:49:15;97020.69;;;6.81;49.59
49515;BME280;35415;47.870;16.058;2023-03-15T13:51:46;97041.75;;;7.00;48.12
49515;BME280;35415;47.870;16.058;2023-03-15T13:54:17;96981.97;;;6.62;47.88
49515;BME280;35415;47.870;16.058;2023-03-15T13:56:55;96991.03;;;6.83;47.58
49515;BME280;35415;47.870;16.058;2023-03-15T13:59:28;97001.16;;;6.81;47.50
49515;BME280;35415;47.870;16.058;2023-03-15T14:01:58;96988.00;;;6.74;47.45
49515;BME280;35415;47.870;16.058;2023-03-15T14:04:27;97025.03;;;7.09;47.19
49515;BME280;35415;47.870;16.058;2023-03-15T14:07:22;96992.81;;;6.72;47.88
49515;BME280;35415;47.870;16.058;2023-03-15T14:10:18;97034.84;;;7.04;47.52
49515;BME280;35415;47.870;16.058;2023-03-15T14:12:47;97043.56;;;6.94;47.58
49515;BME280;35415;47.870;16.058;2023-03-15T14:15:17;97034.25;;;6.97;47.95
49515;BME280;35415;47.870;16.058;2023-03-15T14:18:00;97031.81;;;6.95;48.15
49515;BME280;35415;47.870;16.058;2023-03-15T14:20:29;97038.09;;;6.84;47.58
49515;BME280;35415;47.870;16.058;2023-03-15T14:23:02;97033.31;;;6.86;48.07
49515;BME280;35415;47.870;16.058;2023-03-15T14:25:34;97049.69;;;6.89;47.87
49515;BME280;35415;47.870;16.058;2023-03-15T14:28:03;97050.22;;;6.91;48.41
49515;BME280;35415;47.870;16.058;2023-03-15T14:30:34;97045.94;;;6.90;48.59
49515;BME280;35415;47.870;16.058;2023-03-15T14:33:04;97064.75;;;7.01;48.37
49515;BME280;35415;47.870;16.058;2023-03-15T14:35:41;97003.66;;;6.66;48.20
49515;BME280;35415;47.870;16.058;2023-03-15T14:38:14;97013.22;;;6.83;48.14
49515;BME280;35415;47.870;16.058;2023-03-15T14:40:44;97045.13;;;7.12;48.50
49515;BME280;35415;47.870;16.058;2023-03-15T14:43:11;97051.03;;;7.14;48.39
49515;BME280;35415;47.870;16.058;2023-03-15T14:45:41;97050.72;;;7.10;48.27
49515;BME280;35415;47.870;16.058;2023-03-15T14:48:13;97065.56;;;7.23;47.90
49515;BME280;35415;47.870;16.058;2023-03-15T14:50:43;97084.41;;;7.33;47.76
49515;BME280;35415;47.870;16.058;2023-03-15T14:53:15;97057.91;;;7.32;48.39
49515;BME280;35415;47.870;16.058;2023-03-15T14:55:46;97039.25;;;7.15;48.48
49515;BME280;35415;47.870;16.058;2023-03-15T14:58:15;97066.47;;;7.34;48.30
49515;BME280;35415;47.870;16.058;2023-03-15T15:00:44;97077.19;;;7.34;48.25
49515;BME280;35415;47.870;16.058;2023-03-15T15:03:16;97065.16;;;7.36;48.22
49515;BME280;35415;47.870;16.058;2023-03-15T15:05:47;97012.38;;;6.78;48.10
49515;BME280;35415;47.870;16.058;2023-03-15T15:08:19;97052.63;;;7.15;48.01
49515;BME280;35415;47.870;16.058;2023-03-15T15:10:51;97082.19;;;7.25;48.46
49515;BME280;35415;47.870;16.058;2023-03-15T15:13:24;97076.72;;;7.15;48.12
49515;BME280;35415;47.870;16.058;2023-03-15T15:15:52;97057.19;;;6.92;48.77
49515;BME280;35415;47.870;16.058;2023-03-15T15:18:20;97030.88;;;6.84;48.33
49515;BME280;35415;47.870;16.058;2023-03-15T15:20:47;97092.06;;;7.03;48.36
49515;BME280;35415;47.870;16.058;2023-03-15T15:23:21;97081.19;;;7.09;48.44
49515;BME280;35415;47.870;16.058;2023-03-15T15:25:51;97073.69;;;7.06;48.65
49515;BME280;35415;47.870;16.058;2023-03-15T15:28:19;97084.97;;;7.13;48.32
49515;BME280;35415;47.870;16.058;2023-03-15T15:30:46;97086.97;;;7.23;48.57
49515;BME280;35415;47.870;16.058;2023-03-15T15:33:13;97086.22;;;7.28;48.64
49515;BME280;35415;47.870;16.058;2023-03-15T15:35:41;97095.66;;;7.35;47.83
49515;BME280;35415;47.870;16.058;2023-03-15T15:38:09;97095.09;;;7.33;47.70
49515;BME280;35415;47.870;16.058;2023-03-15T15:40:41;97101.22;;;7.55;47.11
49515;BME280;35415;47.870;16.058;2023-03-15T15:43:10;97099.84;;;7.53;46.63
49515;BME280;35415;47.870;16.058;2023-03-15T15:45:40;97057.09;;;7.31;46.49
49515;BME280;35415;47.870;16.058;2023-03-15T15:48:07;97089.69;;;7.28;46.49
49515;BME280;35415;47.870;16.058;2023-03-15T15:50:35;97106.25;;;7.25;46.34
49515;BME280;35415;47.870;16.058;2023-03-15T15:53:04;97063.56;;;6.70;46.98
49515;BME280;35415;47.870;16.058;2023-03-15T15:55:34;97115.22;;;6.92;47.42
49515;BME280;35415;47.870;16.058;2023-03-15T15:58:09;97093.41;;;6.61;47.60
49515;BME280;35415;47.870;16.058;2023-03-15T16:00:37;97119.06;;;6.62;47.77
49515;BME280;35415;47.870;16.058;2023-03-15T16:03:10;97109.97;;;6.25;48.35
49515;BME280;35415;47.870;16.058;2023-03-15T16:05:40;97085.53;;;5.99;48.61
49515;BME280;35415;47.870;16.058;2023-03-15T16:08:20;97143.31;;;6.22;49.08
49515;BME280;35415;47.870;16.058;2023-03-15T16:10:51;97142.97;;;6.19;49.11
49515;BME280;35415;47.870;16.058;2023-03-15T16:13:20;97103.34;;;5.82;49.66
49515;BME280;35415;47.870;16.058;2023-03-15T16:15:50;97102.44;;;5.60;51.45
49515;BME280;35415;47.870;16.058;2023-03-15T16:18:18;97134.63;;;5.70;53.23
49515;BME280;35415;47.870;16.058;2023-03-15T16:20:45;97126.41;;;5.43;56.13
49515;BME280;35415;47.870;16.058;2023-03-15T16:23:17;97118.25;;;5.21;56.49
49515;BME280;35415;47.870;16.058;2023-03-15T16:25:48;97178.25;;;5.35;58.17
49515;BME280;35415;47.870;16.058;2023-03-15T16:28:17;97121.91;;;4.92;58.89
49515;BME280;35415;47.870;16.058;2023-03-15T16:30:46;97138.00;;;4.97;58.96
49515;BME280;35415;47.870;16.058;2023-03-15T16:33:15;97180.06;;;5.06;59.81
49515;BME280;35415;47.870;16.058;2023-03-15T16:35:43;97129.25;;;4.73;59.42
49515;BME280;35415;47.870;16.058;2023-03-15T16:38:14;97154.94;;;4.67;59.61
49515;BME280;35415;47.870;16.058;2023-03-15T16:40:44;97142.22;;;4.58;59.57
49515;BME280;35415;47.870;16.058;2023-03-15T16:43:12;97126.47;;;4.44;59.42
49515;BME280;35415;47.870;16.058;2023-03-15T16:45:41;97200.59;;;4.71;59.06
49515;BME280;35415;47.870;16.058;2023-03-15T16:48:11;97129.34;;;4.31;58.73
49515;BME280;35415;47.870;16.058;2023-03-15T16:50:40;97171.19;;;4.54;57.92
49515;BME280;35415;47.870;16.058;2023-03-15T16:53:11;97203.47;;;4.58;57.40
49515;BME280;35415;47.870;16.058;2023-03-15T16:55:39;97127.38;;;4.03;56.48
49515;BME280;35415;47.870;16.058;2023-03-15T16:58:16;97199.63;;;4.30;56.48
49515;BME280;35415;47.870;16.058;2023-03-15T17:00:45;97238.91;;;4.46;56.87
49515;BME280;35415;47.870;16.058;2023-03-15T17:03:16;97219.19;;;4.24;60.33
49515;BME280;35415;47.870;16.058;2023-03-15T17:05:47;97266.47;;;4.52;62.70
49515;BME280;35415;47.870;16.058;2023-03-15T17:08:18;97279.06;;;4.45;65.25
49515;BME280;35415;47.870;16.058;2023-03-15T17:10:46;97240.13;;;3.90;66.28
49515;BME280;35415;47.870;16.058;2023-03-15T17:13:15;97253.78;;;3.94;68.35
49515;BME280;35415;47.870;16.058;2023-03-15T17:15:43;97256.97;;;3.84;71.75
49515;BME280;35415;47.870;16.058;2023-03-15T17:18:17;97259.16;;;3.76;72.71
49515;BME280;35415;47.870;16.058;2023-03-15T17:20:46;97251.91;;;3.65;72.42
49515;BME280;35415;47.870;16.058;2023-03-15T17:23:15;97231.03;;;3.50;74.34
49515;BME280;35415;47.870;16.058;2023-03-15T17:25:46;97272.38;;;3.64;74.42
49515;BME280;35415;47.870;16.058;2023-03-15T17:28:14;97215.63;;;3.22;74.76
49515;BME280;35415;47.870;16.058;2023-03-15T17:30:42;97229.78;;;3.16;74.95
49515;BME280;35415;47.870;16.058;2023-03-15T17:33:09;97230.59;;;3.16;74.73
49515;BME280;35415;47.870;16.058;2023-03-15T17:35:41;97254.69;;;3.21;75.17
49515;BME280;35415;47.870;16.058;2023-03-15T17:38:16;97269.81;;;3.21;73.78
49515;BME280;35415;47.870;16.058;2023-03-15T17:40:44;97307.50;;;3.36;75.15
49515;BME280;35415;47.870;16.058;2023-03-15T17:43:12;97281.38;;;3.08;75.07
49515;BME280;35415;47.870;16.058;2023-03-15T17:45:42;97270.88;;;2.95;75.18
49515;BME280;35415;47.870;16.058;2023-03-15T17:48:10;97324.75;;;3.27;75.45
49515;BME280;35415;47.870;16.058;2023-03-15T17:50:42;97308.69;;;3.15;74.39
49515;BME280;35415;47.870;16.058;2023-03-15T17:53:13;97244.72;;;2.74;74.79
49515;BME280;35415;47.870;16.058;2023-03-15T17:55:41;97329.63;;;3.30;72.48
49515;BME280;35415;47.870;16.058;2023-03-15T17:58:11;97241.47;;;2.71;73.57
49515;BME280;35415;47.870;16.058;2023-03-15T18:00:38;97324.88;;;3.32;74.52
49515;BME280;35415;47.870;16.058;2023-03-15T18:03:08;97342.69;;;3.31;72.66
49515;BME280;35415;47.870;16.058;2023-03-15T18:05:37;97324.06;;;3.31;73.00
49515;BME280;35415;47.870;16.058;2023-03-15T18:08:09;97253.16;;;2.89;72.02
49515;BME280;35415;47.870;16.058;2023-03-15T18:10:39;97287.72;;;3.07;72.17
49515;BME280;35415;47.870;16.058;2023-03-15T18:13:11;97320.16;;;3.34;71.77
49515;BME280;35415;47.870;16.058;2023-03-15T18:15:39;97273.44;;;3.01;71.84
49515;BME280;35415;47.870;16.058;2023-03-15T18:18:07;97319.78;;;3.30;71.35
49515;BME280;35415;47.870;16.058;2023-03-15T18:20:35;97250.31;;;2.84;71.08
49515;BME280;35415;47.870;16.058;2023-03-15T18:23:02;97292.88;;;3.02;69.53
49515;BME280;35415;47.870;16.058;2023-03-15T18:25:33;97335.75;;;3.30;68.84
49515;BME280;35415;47.870;16.058;2023-03-15T18:28:01;97208.69;;;2.59;68.48
49515;BME280;35415;47.870;16.058;2023-03-15T18:30:31;97283.50;;;2.99;68.93
49515;BME280;35415;47.870;16.058;2023-03-15T18:32:59;97292.72;;;2.97;68.00
49515;BME280;35415;47.870;16.058;2023-03-15T18:35:30;97247.97;;;2.76;68.26
49515;BME280;35415;47.870;16.058;2023-03-15T18:37:58;97241.88;;;2.68;68.25
49515;BME280;35415;47.870;16.058;2023-03-15T18:40:28;97299.22;;;3.01;67.96
49515;BME280;35415;47.870;16.058;2023-03-15T18:43:02;97293.91;;;3.01;68.08
49515;BME280;35415;47.870;16.058;2023-03-15T18:45:32;97290.78;;;2.86;68.14
49515;BME280;35415;47.870;16.058;2023-03-15T18:48:00;97259.63;;;2.75;68.32
49515;BME280;35415;47.870;16.058;2023-03-15T18:50:27;97327.88;;;3.17;68.18
49515;BME280;35415;47.870;16.058;2023-03-15T18:52:56;97300.91;;;2.95;67.79
49515;BME280;35415;47.870;16.058;2023-03-15T18:55:24;97324.50;;;3.10;69.15
49515;BME280;35415;47.870;16.058;2023-03-15T18:57:52;97308.50;;;2.92;67.66
49515;BME280;35415;47.870;16.058;2023-03-15T19:00:23;97341.47;;;3.09;67.63
49515;BME280;35415;47.870;16.058;2023-03-15T19:02:53;97347.44;;;3.05;68.08
49515;BME280;35415;47.870;16.058;2023-03-15T19:05:20;97347.03;;;3.01;67.68
49515;BME280;35415;47.870;16.058;2023-03-15T19:07:47;97327.16;;;2.85;66.76
49515;BME280;35415;47.870;16.058;2023-03-15T19:10:16;97309.16;;;2.62;66.17
49515;BME280;35415;47.870;16.058;2023-03-15T19:12:44;97353.69;;;2.92;66.75